createdAt,value
2017-10-25T00:00:06.124Z,71.21
2017-10-25T00:02:33.752Z,71.04
2017-10-25T00:05:01.518Z,71.24
2017-10-25T00:07:29.016Z,71.08
2017-10-25T00:09:56.928Z,70.95
2017-10-25T00:12:24.383Z,70.90
2017-10-25T00:14:51.852Z,70.63
2017-10-25T00:17:19.479Z,70.56
2017-10-25T00:19:47.129Z,70.81
2017-10-25T00:22:15.232Z,71.00
2017-10-25T00:24:43.026Z,71.06
2017-10-25T00:27:10.526Z,71.50
2017-10-25T00:29:38.008Z,71.30
2017-10-25T00:32:05.542Z,70.95
2017-10-25T00:34:33.205Z,71.39
2017-10-25T00:37:00.671Z,71.45
2017-10-25T00:39:28.284Z,71.45
2017-10-25T00:41:56.453Z,71.54
2017-10-25T00:44:23.965Z,71.75
2017-10-25T00:46:51.526Z,71.44
2017-10-25T00:49:19.056Z,71.51
2017-10-25T00:51:46.660Z,71.83
2017-10-25T00:54:14.297Z,72.02
2017-10-25T00:56:41.807Z,72.10
2017-10-25T00:59:09.352Z,72.03
2017-10-25T01:01:36.862Z,71.21
2017-10-25T01:04:04.459Z,71.21
2017-10-25T01:06:32.746Z,71.33
2017-10-25T01:09:00.521Z,71.28
2017-10-25T01:11:28.079Z,71.01
2017-10-25T01:13:55.636Z,70.71
2017-10-25T01:16:23.175Z,70.65
2017-10-25T01:18:51.029Z,70.49
2017-10-25T01:21:18.606Z,70.42
2017-10-25T01:23:46.128Z,70.98
2017-10-25T01:26:13.784Z,71.04
2017-10-25T01:28:41.340Z,70.85
2017-10-25T01:31:08.862Z,71.02
2017-10-25T01:33:36.813Z,71.57
2017-10-25T01:36:04.314Z,71.21
2017-10-25T01:38:32.020Z,71.81
2017-10-25T01:40:59.524Z,71.69
2017-10-25T01:43:27.162Z,71.22
2017-10-25T01:45:54.702Z,71.12
2017-10-25T01:48:22.279Z,72.30
2017-10-25T01:50:49.926Z,73.12
2017-10-25T01:53:17.514Z,72.62
2017-10-25T01:55:45.048Z,72.15
2017-10-25T01:58:12.536Z,71.51
2017-10-25T02:00:40.164Z,71.23
2017-10-25T02:03:07.659Z,70.89
2017-10-25T02:05:35.222Z,70.93
2017-10-25T02:08:02.701Z,71.33
2017-10-25T02:10:30.266Z,70.76
2017-10-25T02:12:57.860Z,70.21
2017-10-25T02:15:25.487Z,69.81
2017-10-25T02:17:52.987Z,69.74
2017-10-25T02:20:20.552Z,69.81
2017-10-25T02:22:48.117Z,69.54
2017-10-25T02:25:15.836Z,69.65
2017-10-25T02:27:43.629Z,69.75
2017-10-25T02:30:11.189Z,69.59
2017-10-25T02:32:38.806Z,69.75
2017-10-25T02:35:06.684Z,69.44
2017-10-25T02:37:34.164Z,69.25
2017-10-25T02:40:01.684Z,69.44
2017-10-25T02:42:29.235Z,69.47
2017-10-25T02:44:56.973Z,69.41
2017-10-25T02:47:25.030Z,69.27
2017-10-25T02:49:52.625Z,68.86
2017-10-25T02:52:20.343Z,68.72
2017-10-25T02:54:47.880Z,68.54
2017-10-25T02:57:15.438Z,68.46
2017-10-25T02:59:42.995Z,68.45
2017-10-25T03:02:10.885Z,68.19
2017-10-25T03:04:38.462Z,68.38
2017-10-25T03:07:06.108Z,68.39
2017-10-25T03:09:34.329Z,68.10
2017-10-25T03:12:01.964Z,67.99
2017-10-25T03:14:29.520Z,68.05
2017-10-25T03:16:57.127Z,68.52
2017-10-25T03:19:24.743Z,68.81
2017-10-25T03:21:52.351Z,68.79
2017-10-25T03:24:19.888Z,68.95
2017-10-25T03:26:47.568Z,69.22
2017-10-25T03:29:15.102Z,69.83
2017-10-25T03:31:42.688Z,70.14
2017-10-25T03:34:10.577Z,70.16
2017-10-25T03:36:38.152Z,70.47
2017-10-25T03:39:05.790Z,70.72
2017-10-25T03:41:33.327Z,69.89
2017-10-25T03:44:00.865Z,69.67
2017-10-25T03:46:28.516Z,69.29
2017-10-25T03:48:56.061Z,69.51
2017-10-25T03:51:23.637Z,69.50
2017-10-25T03:53:51.452Z,69.39
2017-10-25T03:56:18.999Z,68.98
2017-10-25T03:58:46.907Z,68.95
2017-10-25T04:01:14.502Z,68.38
2017-10-25T04:03:42.103Z,68.38
2017-10-25T04:06:09.664Z,68.39
2017-10-25T04:08:38.378Z,68.67
2017-10-25T04:11:06.714Z,68.46
2017-10-25T04:13:34.547Z,68.51
2017-10-25T04:16:03.280Z,68.66
2017-10-25T04:18:30.966Z,68.57
2017-10-25T04:20:58.705Z,68.58
2017-10-25T04:23:26.641Z,68.64
2017-10-25T04:25:55.419Z,69.11
2017-10-25T04:28:23.703Z,69.06
2017-10-25T04:30:51.576Z,69.01
2017-10-25T04:33:19.454Z,68.80
2017-10-25T04:35:47.197Z,69.24
2017-10-25T04:38:15.583Z,69.24
2017-10-25T04:40:43.521Z,69.07
2017-10-25T04:43:11.248Z,69.56
2017-10-25T04:45:46.235Z,69.51
2017-10-25T04:48:13.972Z,70.65
2017-10-25T04:50:41.894Z,70.50
2017-10-25T04:53:09.586Z,70.44
2017-10-25T04:55:38.146Z,70.47
2017-10-25T04:58:07.085Z,70.82
2017-10-25T05:00:34.877Z,71.12
2017-10-25T05:03:05.896Z,71.20
2017-10-25T05:05:34.804Z,71.66
2017-10-25T05:08:07.971Z,71.37
2017-10-25T05:10:37.849Z,71.41
2017-10-25T05:13:12.768Z,71.39
2017-10-25T05:15:41.500Z,71.79
2017-10-25T05:18:09.799Z,71.98
2017-10-25T05:20:37.371Z,71.36
2017-10-25T05:23:05.325Z,71.47
2017-10-25T05:25:33.390Z,71.85
2017-10-25T05:28:01.406Z,72.18
2017-10-25T05:30:29.524Z,72.74
2017-10-25T05:36:29.438Z,72.03
2017-10-25T05:38:57.480Z,71.66
2017-10-25T05:41:25.232Z,71.68
2017-10-25T05:43:53.430Z,71.79
2017-10-25T05:46:22.716Z,71.71
2017-10-25T05:48:50.467Z,71.37
2017-10-25T05:51:22.122Z,71.37
2017-10-25T05:53:51.938Z,71.57
2017-10-25T05:56:19.758Z,71.39
2017-10-25T05:58:49.533Z,71.61
2017-10-25T06:01:25.357Z,71.55
2017-10-25T06:03:53.266Z,71.35
2017-10-25T06:06:23.103Z,71.01
2017-10-25T06:09:06.083Z,70.92
2017-10-25T06:18:58.877Z,71.10
2017-10-25T07:37:23.048Z,73.03
2017-10-25T07:39:50.536Z,72.76
2017-10-25T07:42:18.191Z,72.79
2017-10-25T07:44:45.812Z,72.37
2017-10-25T07:47:13.306Z,71.92
2017-10-25T07:49:41.082Z,70.56
2017-10-25T07:52:08.570Z,68.87
2017-10-25T07:54:36.204Z,64.41
2017-10-25T07:57:03.696Z,59.76
2017-10-25T07:59:31.201Z,53.33
2017-10-25T08:01:58.673Z,50.96
2017-10-25T08:04:26.171Z,52.91
2017-10-25T08:06:53.668Z,52.99
2017-10-25T08:09:21.150Z,52.49
2017-10-25T08:11:48.633Z,53.20
2017-10-25T08:14:17.026Z,54.65
2017-10-25T08:16:44.525Z,55.19
2017-10-25T08:19:12.027Z,55.50
2017-10-25T08:21:39.749Z,56.10
2017-10-25T08:24:07.243Z,57.66
2017-10-25T08:26:34.732Z,58.56
2017-10-25T08:29:02.233Z,59.57
2017-10-25T08:31:29.704Z,60.12
2017-10-25T08:33:57.334Z,60.66
2017-10-25T08:36:25.420Z,61.69
2017-10-25T08:38:52.908Z,61.57
2017-10-25T08:41:20.413Z,61.23
2017-10-25T08:43:47.959Z,60.83
2017-10-25T08:46:15.463Z,60.24
2017-10-25T08:48:42.933Z,60.74
2017-10-25T08:51:10.432Z,61.86
2017-10-25T08:53:37.923Z,61.53
2017-10-25T08:56:05.447Z,61.61
2017-10-25T08:58:32.942Z,62.38
2017-10-25T09:01:00.428Z,62.06
2017-10-25T09:03:27.911Z,61.87
2017-10-25T09:05:55.370Z,61.53
2017-10-25T09:08:22.870Z,61.42
2017-10-25T09:10:50.348Z,61.05
2017-10-25T09:13:17.996Z,61.34
2017-10-25T09:15:45.587Z,61.36
2017-10-25T09:18:13.142Z,61.50
2017-10-25T09:20:40.667Z,60.75
2017-10-25T09:23:08.218Z,61.08
2017-10-25T09:25:35.713Z,59.88
2017-10-25T09:28:03.798Z,59.57
2017-10-25T09:30:32.009Z,59.08
2017-10-25T09:32:59.469Z,58.93
2017-10-25T09:35:26.985Z,57.75
2017-10-25T09:37:54.485Z,57.42
2017-10-25T09:40:21.972Z,58.48
2017-10-25T09:42:49.423Z,58.22
2017-10-25T09:45:17.741Z,57.62
2017-10-25T09:47:45.293Z,57.20
2017-10-25T09:50:12.824Z,56.12
2017-10-25T09:52:40.339Z,55.07
2017-10-25T09:55:08.440Z,55.09
2017-10-25T09:57:35.977Z,54.60
2017-10-25T10:00:03.458Z,54.30
2017-10-25T10:02:31.860Z,53.62
2017-10-25T10:04:59.981Z,53.10
2017-10-25T10:07:27.488Z,52.94
2017-10-25T10:09:55.123Z,54.24
2017-10-25T10:12:22.699Z,54.43
2017-10-25T10:14:50.224Z,54.83
2017-10-25T10:17:18.278Z,54.23
2017-10-25T10:19:46.023Z,53.75
2017-10-25T10:22:18.182Z,54.07
2017-10-25T10:24:45.750Z,53.78
2017-10-25T10:27:14.117Z,53.10
2017-10-25T10:29:42.489Z,52.51
2017-10-25T10:32:11.056Z,52.22
2017-10-25T10:34:38.608Z,52.94
2017-10-25T10:37:06.179Z,52.25
2017-10-25T10:39:33.738Z,49.61
2017-10-25T10:42:01.254Z,43.03
2017-10-25T10:44:28.827Z,40.60
2017-10-25T10:46:56.320Z,37.85
2017-10-25T10:49:23.919Z,35.88
2017-10-25T10:51:52.308Z,34.05
2017-10-25T10:54:20.059Z,31.66
2017-10-25T10:56:47.623Z,30.73
2017-10-25T10:59:15.154Z,31.03
2017-10-25T11:01:42.897Z,30.52
2017-10-25T11:04:10.484Z,29.92
2017-10-25T11:06:38.076Z,33.63
2017-10-25T11:09:06.221Z,32.58
2017-10-25T11:11:33.818Z,30.95
2017-10-25T11:14:01.453Z,31.07
2017-10-25T11:16:29.371Z,32.01
2017-10-25T11:18:57.398Z,33.23
2017-10-25T11:21:28.843Z,32.08
2017-10-25T11:23:56.413Z,30.53
2017-10-25T11:26:24.135Z,31.55
2017-10-25T11:28:53.431Z,30.52
2017-10-25T11:31:21.056Z,31.31
2017-10-25T11:33:49.510Z,29.88
2017-10-25T11:36:17.208Z,29.93
2017-10-25T11:38:45.198Z,32.63
2017-10-25T11:41:14.153Z,31.02
2017-10-25T11:43:42.445Z,29.68
2017-10-25T11:46:10.012Z,27.58
2017-10-25T11:48:39.565Z,26.30
2017-10-25T11:51:07.794Z,25.88
2017-10-25T11:53:35.286Z,25.36
2017-10-25T11:56:03.030Z,24.56
2017-10-25T11:58:30.574Z,25.72
2017-10-25T12:00:58.118Z,26.30
2017-10-25T12:03:25.661Z,26.55
2017-10-25T12:05:53.194Z,27.04
2017-10-25T12:08:20.722Z,28.04
2017-10-25T12:10:50.047Z,31.53
2017-10-25T12:13:18.908Z,29.83
2017-10-25T12:15:46.467Z,28.62
2017-10-25T12:18:14.515Z,29.07
2017-10-25T12:20:46.051Z,29.05
2017-10-25T12:23:16.044Z,29.75
2017-10-25T12:25:46.261Z,29.00
2017-10-25T12:28:15.029Z,29.09
2017-10-25T12:30:42.579Z,28.76
2017-10-25T12:33:10.155Z,29.01
2017-10-25T12:35:37.696Z,29.04
2017-10-25T12:38:05.278Z,30.07
2017-10-25T12:40:32.774Z,29.92
2017-10-25T12:43:00.312Z,30.66
2017-10-25T12:45:28.386Z,32.11
2017-10-25T12:47:55.980Z,33.90
2017-10-25T12:50:24.539Z,34.54
2017-10-25T12:52:52.096Z,35.47
2017-10-25T12:55:19.666Z,34.21
2017-10-25T12:57:47.218Z,34.47
2017-10-25T13:00:14.745Z,35.50
2017-10-25T13:02:42.832Z,35.52
2017-10-25T13:05:10.356Z,36.24
2017-10-25T13:07:37.898Z,36.28
2017-10-25T13:10:10.343Z,37.47
2017-10-25T13:15:54.249Z,35.57
2017-10-25T13:18:40.830Z,32.98
2017-10-25T13:21:08.347Z,32.30
2017-10-25T13:23:37.352Z,32.98
2017-10-25T13:26:04.829Z,36.38
2017-10-25T13:28:32.728Z,36.96
2017-10-25T13:31:00.265Z,36.13
2017-10-25T13:33:27.813Z,35.71
2017-10-25T13:35:55.313Z,36.61
2017-10-25T13:38:22.802Z,36.75
2017-10-25T13:40:50.310Z,37.00
2017-10-25T13:43:17.858Z,38.66
2017-10-25T13:45:45.355Z,39.21
2017-10-25T13:48:12.932Z,40.83
2017-10-25T13:50:40.437Z,39.99
2017-10-25T13:53:07.935Z,39.71
2017-10-25T13:55:35.444Z,40.72
2017-10-25T13:58:02.947Z,41.38
2017-10-25T14:00:31.121Z,41.97
2017-10-25T14:02:58.624Z,42.71
2017-10-25T14:05:26.433Z,43.52
2017-10-25T14:07:53.951Z,43.36
2017-10-25T14:10:21.453Z,43.11
2017-10-25T14:12:49.916Z,44.21
2017-10-25T14:15:17.472Z,44.29
2017-10-25T14:17:44.977Z,44.41
2017-10-25T14:20:12.519Z,44.14
2017-10-25T14:22:40.027Z,44.47
2017-10-25T14:25:07.556Z,44.60
2017-10-25T14:27:47.698Z,45.07
2017-10-25T14:30:15.332Z,45.00
2017-10-25T14:32:43.028Z,45.63
2017-10-25T14:35:10.519Z,47.25
2017-10-25T14:37:38.015Z,47.35
2017-10-25T14:40:05.518Z,47.71
2017-10-25T14:42:33.029Z,48.43
2017-10-25T14:45:00.560Z,47.82
2017-10-25T14:47:28.060Z,48.15
2017-10-25T14:49:55.645Z,48.17
2017-10-25T14:52:23.193Z,48.25
2017-10-25T14:54:50.923Z,48.14
2017-10-25T14:57:18.436Z,48.66
2017-10-25T14:59:45.911Z,48.45
2017-10-25T15:02:13.433Z,49.10
2017-10-25T15:04:41.080Z,50.53
2017-10-25T15:07:08.612Z,50.24
2017-10-25T15:09:37.000Z,50.23
2017-10-25T15:12:04.488Z,50.16
2017-10-25T15:14:32.047Z,50.36
2017-10-25T15:16:59.544Z,51.13
2017-10-25T15:19:27.266Z,52.33
2017-10-25T15:21:54.753Z,51.85
2017-10-25T15:24:22.288Z,51.54
2017-10-25T15:26:50.056Z,52.73
2017-10-25T15:29:17.520Z,53.49
2017-10-25T15:31:45.028Z,53.89
2017-10-25T15:34:12.520Z,53.91
2017-10-25T15:36:40.051Z,54.12
2017-10-25T15:39:07.553Z,54.69
2017-10-25T15:41:35.078Z,54.36
2017-10-25T15:44:02.523Z,54.40
2017-10-25T15:46:30.108Z,54.45
2017-10-25T15:49:01.537Z,53.39
2017-10-25T15:51:29.110Z,53.33
2017-10-25T15:53:56.680Z,53.62
2017-10-25T15:56:24.261Z,53.87
2017-10-25T15:58:51.801Z,53.62
2017-10-25T16:01:19.290Z,53.51
2017-10-25T16:03:46.814Z,53.91
2017-10-25T16:06:14.303Z,53.96
2017-10-25T16:08:41.857Z,54.25
2017-10-25T16:11:09.353Z,54.61
2017-10-25T16:16:04.326Z,54.97
2017-10-25T16:18:31.804Z,54.77
2017-10-25T16:20:59.352Z,54.46
2017-10-25T16:23:27.608Z,55.22
2017-10-25T16:25:55.427Z,55.41
2017-10-25T16:28:22.908Z,55.30
2017-10-25T16:30:53.205Z,55.77
2017-10-25T16:33:20.745Z,55.71
2017-10-25T16:35:48.245Z,56.03
2017-10-25T16:38:15.777Z,56.46
2017-10-25T16:40:43.245Z,56.36
2017-10-25T16:43:10.921Z,56.82
2017-10-25T16:45:38.413Z,57.02
2017-10-25T16:48:06.896Z,56.94
2017-10-25T16:50:34.543Z,57.37
2017-10-25T16:53:02.061Z,57.84
2017-10-25T16:55:29.598Z,57.89
2017-10-25T16:57:57.147Z,57.88
2017-10-25T17:00:24.647Z,59.28
2017-10-25T17:02:53.219Z,60.46
2017-10-25T17:05:22.032Z,62.39
2017-10-25T17:07:50.609Z,62.74
2017-10-25T17:10:18.365Z,60.89
2017-10-25T17:12:46.012Z,60.53
2017-10-25T17:15:13.545Z,60.37
2017-10-25T17:17:41.132Z,60.92
2017-10-25T17:20:08.623Z,60.32
2017-10-25T17:25:03.817Z,60.04
2017-10-25T17:27:31.607Z,60.33
2017-10-25T17:29:59.170Z,61.79
2017-10-25T17:32:26.758Z,62.45
2017-10-25T17:34:54.909Z,61.91
2017-10-25T17:37:22.757Z,61.50
2017-10-25T17:39:50.849Z,62.03
2017-10-25T17:42:19.511Z,61.51
2017-10-25T17:44:48.233Z,61.53
2017-10-25T17:47:16.952Z,63.57
2017-10-25T17:49:45.107Z,63.59
2017-10-25T17:52:13.603Z,63.52
2017-10-25T17:54:41.300Z,62.90
2017-10-25T17:57:08.851Z,63.71
2017-10-25T17:59:36.388Z,63.51
2017-10-25T18:02:03.929Z,63.20
2017-10-25T18:04:31.566Z,63.41
2017-10-25T18:06:59.129Z,62.93
2017-10-25T18:09:26.743Z,63.01
2017-10-25T18:11:54.288Z,62.68
2017-10-25T18:14:22.423Z,62.49
2017-10-25T18:16:50.159Z,62.54
2017-10-25T18:19:17.693Z,62.41
2017-10-25T18:21:45.228Z,62.73
2017-10-25T18:24:12.842Z,62.96
2017-10-25T18:26:40.569Z,63.27
2017-10-25T18:29:08.183Z,63.32
2017-10-25T18:31:35.713Z,63.53
2017-10-25T18:34:03.271Z,64.14
2017-10-25T18:36:30.813Z,64.08
2017-10-25T18:38:58.296Z,63.64
2017-10-25T18:41:25.777Z,63.05
2017-10-25T18:43:53.353Z,63.16
2017-10-25T18:46:20.942Z,63.18
2017-10-25T18:48:48.529Z,63.77
2017-10-25T18:51:16.125Z,63.91
2017-10-25T18:53:43.691Z,64.11
2017-10-25T18:56:12.453Z,63.55
2017-10-25T18:58:39.963Z,63.73
2017-10-25T19:01:07.513Z,63.59
2017-10-25T19:03:35.095Z,64.31
2017-10-25T19:06:02.613Z,64.62
2017-10-25T19:08:30.138Z,64.45
2017-10-25T19:10:57.825Z,65.13
2017-10-25T19:13:25.960Z,65.47
2017-10-25T19:15:53.625Z,65.90
2017-10-25T19:18:21.123Z,65.65
2017-10-25T19:20:48.666Z,65.93
2017-10-25T19:23:16.222Z,66.71
2017-10-25T19:25:43.768Z,67.60
2017-10-25T19:28:11.347Z,67.34
2017-10-25T19:30:38.884Z,66.57
2017-10-25T19:33:06.361Z,66.74
2017-10-25T19:35:33.900Z,66.85
2017-10-25T19:38:01.455Z,66.64
2017-10-25T19:40:29.012Z,66.63
2017-10-25T19:42:56.577Z,66.97
2017-10-25T19:45:24.048Z,67.14
2017-10-25T19:47:51.615Z,67.18
2017-10-25T19:50:19.262Z,66.65
2017-10-25T19:52:46.724Z,66.21
2017-10-25T19:55:14.220Z,66.36
2017-10-25T19:57:41.742Z,66.41
2017-10-25T20:00:09.200Z,67.28
2017-10-25T20:02:36.668Z,67.57
2017-10-25T20:05:04.183Z,67.60
2017-10-25T20:07:31.650Z,67.62
2017-10-25T20:09:59.281Z,67.42
2017-10-25T20:12:26.760Z,67.48
2017-10-25T20:14:54.302Z,67.45
2017-10-25T20:17:21.805Z,67.45
2017-10-25T20:19:49.269Z,67.35
2017-10-25T20:22:16.874Z,67.36
2017-10-25T20:24:44.432Z,67.24
2017-10-25T20:27:11.952Z,67.37
2017-10-25T20:29:39.409Z,67.55
2017-10-25T20:32:06.881Z,67.65
2017-10-25T20:34:35.003Z,67.10
2017-10-25T20:37:02.467Z,67.55
2017-10-25T20:39:30.030Z,67.43
2017-10-25T20:41:57.581Z,67.52
2017-10-25T20:44:25.317Z,67.72
2017-10-25T20:46:52.803Z,67.76
2017-10-25T20:49:20.289Z,67.74
2017-10-25T20:51:47.783Z,67.95
2017-10-25T20:54:15.277Z,68.44
2017-10-25T20:56:42.791Z,68.51
2017-10-25T20:59:10.258Z,67.98
2017-10-25T21:01:37.717Z,67.70
2017-10-25T21:04:05.197Z,68.07
2017-10-25T21:06:32.684Z,68.33
2017-10-25T21:09:00.199Z,68.28
2017-10-25T21:11:27.682Z,68.48
2017-10-25T21:13:55.176Z,69.29
2017-10-25T21:16:22.658Z,69.53
2017-10-25T21:18:50.144Z,69.14
2017-10-25T21:21:17.633Z,69.00
2017-10-25T21:23:45.088Z,68.94
2017-10-25T21:26:12.577Z,69.66
2017-10-25T21:28:40.038Z,69.25
2017-10-25T21:31:07.599Z,69.03
2017-10-25T21:33:35.533Z,69.13
2017-10-25T21:36:02.995Z,69.11
2017-10-25T21:38:30.477Z,68.83
2017-10-25T21:40:57.942Z,68.95
2017-10-25T21:43:25.455Z,69.31
2017-10-25T21:45:52.948Z,69.35
2017-10-25T21:48:20.556Z,69.21
2017-10-25T21:50:48.187Z,69.04
2017-10-25T21:53:15.724Z,68.75
2017-10-25T21:55:43.292Z,69.08
2017-10-25T21:58:10.794Z,69.22
2017-10-25T22:00:38.318Z,69.29
2017-10-25T22:03:05.852Z,69.39
2017-10-25T22:05:33.346Z,69.45
2017-10-25T22:08:00.833Z,69.52
2017-10-25T22:10:28.321Z,69.57
2017-10-25T22:12:55.773Z,69.69
2017-10-25T22:15:23.258Z,69.73
2017-10-25T22:17:50.721Z,69.71
2017-10-25T22:20:18.278Z,69.73
2017-10-25T22:22:45.796Z,69.63
2017-10-25T22:25:13.253Z,69.66
2017-10-25T22:27:40.758Z,69.81
2017-10-25T22:30:08.216Z,69.74
2017-10-25T22:32:35.750Z,69.82
2017-10-25T22:35:03.199Z,69.87
2017-10-25T22:37:30.720Z,69.97
2017-10-25T22:39:58.175Z,70.53
2017-10-25T22:42:25.633Z,70.11
2017-10-25T22:44:53.122Z,70.47
2017-10-25T22:47:21.242Z,70.22
2017-10-25T22:49:48.720Z,70.19
2017-10-25T22:52:16.239Z,70.43
2017-10-25T22:54:43.765Z,69.91
2017-10-25T22:57:11.235Z,70.10
2017-10-25T22:59:38.821Z,70.28
2017-10-25T23:02:06.410Z,70.20
2017-10-25T23:04:33.886Z,70.10
2017-10-25T23:07:01.694Z,70.41
2017-10-25T23:09:29.156Z,70.14
2017-10-25T23:11:56.680Z,70.08
2017-10-25T23:14:24.315Z,70.89
2017-10-25T23:16:51.792Z,71.40
2017-10-25T23:19:19.274Z,71.65
2017-10-25T23:21:46.787Z,70.90
2017-10-25T23:24:14.285Z,70.93
2017-10-25T23:26:41.743Z,70.38
2017-10-25T23:29:09.218Z,70.16
2017-10-25T23:31:36.727Z,70.60
2017-10-25T23:34:04.196Z,71.45
2017-10-25T23:36:31.730Z,71.18
2017-10-25T23:38:59.187Z,72.03
2017-10-25T23:41:26.679Z,71.28
2017-10-25T23:43:54.139Z,71.40
2017-10-25T23:46:21.616Z,71.47
2017-10-25T23:48:49.125Z,71.65
2017-10-25T23:51:16.588Z,71.53
2017-10-25T23:53:44.075Z,71.44
2017-10-25T23:56:11.537Z,71.07
2017-10-25T23:58:39.056Z,71.12
